Time;durP1;ratioP1;P1;durP2;ratioP2;P2;SDS_P1;SDS_P2;PMS_P1;PMS_P2;Temp;Humidity;BMP_temperature;BMP_pressure;BME280_temperature;BME280_humidity;BME280_pressure;Samples;Min_cycle;Max_cycle;Signal;HPM_P1;HPM_P2
2022/03/04 00:01:56;;;;;;;21.83;10.80;;;0.40;99.90;;;;;;5052786;28;20064;-83
2022/03/04 00:04:22;;;;;;;19.90;10.07;;;0.40;99.90;;;;;;5061591;28;20512;-83
2022/03/04 00:06:48;;;;;;;20.20;10.13;;;0.40;99.90;;;;;;5052502;28;20116;-83
2022/03/04 00:09:15;;;;;;;20.13;10.75;;;0.30;99.90;;;;;;5077509;28;20044;-83
2022/03/04 00:11:41;;;;;;;19.48;10.43;;;0.30;99.90;;;;;;5059129;28;20083;-83
2022/03/04 00:14:08;;;;;;;21.75;10.60;;;0.30;99.90;;;;;;5070950;28;20086;-83
2022/03/04 00:16:34;;;;;;;24.63;11.25;;;0.30;99.90;;;;;;5025960;28;20800;-83
2022/03/04 00:19:07;;;;;;;20.33;10.82;;;0.30;99.90;;;;;;5076202;28;20115;-83
2022/03/04 00:21:41;;;;;;;21.13;10.75;;;0.30;99.90;;;;;;5022882;28;1121992;-83
2022/03/04 00:24:08;;;;;;;21.13;10.35;;;0.30;99.90;;;;;;5071520;28;20041;-83
2022/03/04 00:26:35;;;;;;;20.77;10.07;;;0.20;99.90;;;;;;5073803;28;20036;-83
2022/03/04 00:29:01;;;;;;;22.23;10.70;;;0.20;99.90;;;;;;5075300;28;20556;-83
2022/03/04 00:31:27;;;;;;;21.00;10.15;;;1.30;99.90;;;;;;5071887;28;20036;-83
2022/03/04 00:33:53;;;;;;;20.73;10.13;;;0.20;99.90;;;;;;5063694;28;20066;-83
2022/03/04 00:36:22;;;;;;;20.73;10.80;;;1.40;99.90;;;;;;5077765;28;20703;-83
2022/03/04 00:38:52;;;;;;;22.50;10.23;;;0.10;99.90;;;;;;5055824;28;20529;-83
2022/03/04 00:41:19;;;;;;;20.35;10.45;;;0.30;99.90;;;;;;5078733;28;20036;-83
2022/03/04 00:43:46;;;;;;;20.55;10.70;;;0.10;99.90;;;;;;5059143;28;20032;-83
2022/03/04 00:46:13;;;;;;;19.83;10.18;;;1.60;99.90;;;;;;5080769;28;20074;-83
2022/03/04 00:48:39;;;;;;;23.35;10.20;;;0.00;99.90;;;;;;5072359;28;20525;-82
2022/03/04 00:51:05;;;;;;;21.85;10.63;;;0.00;99.90;;;;;;5056978;28;20140;-82
2022/03/04 00:53:31;;;;;;;20.13;10.27;;;1.40;99.90;;;;;;5045837;28;20044;-83
2022/03/04 01:10:41;;;;;;;25.02;12.07;;;-0.10;99.90;;;;;;5083237;28;20111;-83
2022/03/04 01:13:06;;;;;;;23.50;11.43;;;-0.10;99.90;;;;;;5079554;28;20119;-82
2022/03/04 01:15:32;;;;;;;21.77;11.32;;;0.20;99.90;;;;;;5085318;28;20115;-82
2022/03/04 01:17:58;;;;;;;23.23;11.55;;;-0.20;99.90;;;;;;5067941;28;20408;-82
2022/03/04 01:20:24;;;;;;;25.83;11.45;;;-0.20;99.90;;;;;;5073199;28;20059;-83
2022/03/04 01:22:49;;;;;;;22.60;12.00;;;-0.20;99.90;;;;;;5067602;28;20038;-83
2022/03/04 01:25:15;;;;;;;24.65;12.40;;;-0.10;99.90;;;;;;5085328;28;20044;-82
2022/03/04 01:27:41;;;;;;;23.63;11.98;;;-0.10;99.90;;;;;;5080306;28;20076;-83
2022/03/04 01:30:09;;;;;;;22.17;11.27;;;-0.10;99.90;;;;;;5084301;28;20123;-82
2022/03/04 01:32:35;;;;;;;24.05;12.45;;;-0.10;99.90;;;;;;5068989;28;20044;-82
2022/03/04 01:35:01;;;;;;;24.35;11.45;;;-0.10;99.90;;;;;;5078384;28;20129;-83
2022/03/04 01:37:27;;;;;;;23.17;11.45;;;-0.10;99.90;;;;;;5068884;28;20133;-82
2022/03/04 01:39:52;;;;;;;24.95;11.70;;;-0.20;99.90;;;;;;5069434;28;20035;-83
2022/03/04 01:42:18;;;;;;;23.58;12.10;;;0.00;99.90;;;;;;5080127;28;20046;-82
2022/03/04 01:44:46;;;;;;;24.02;11.52;;;-0.20;99.90;;;;;;5062488;28;20115;-82
2022/03/04 01:47:12;;;;;;;22.15;11.05;;;-0.20;99.90;;;;;;5074375;28;20040;-82
2022/03/04 01:49:41;;;;;;;22.63;11.80;;;-0.20;99.90;;;;;;5071980;28;20040;-82
2022/03/04 01:52:08;;;;;;;21.95;11.20;;;-0.30;99.90;;;;;;5075328;28;20040;-82
2022/03/04 01:54:34;;;;;;;23.80;12.38;;;-0.30;99.90;;;;;;5077316;28;20110;-82
2022/03/04 01:57:00;;;;;;;25.95;12.85;;;-0.30;99.90;;;;;;5088725;28;20036;-82
2022/03/04 01:59:27;;;;;;;25.73;12.02;;;-0.30;99.90;;;;;;5071228;28;20119;-82
2022/03/04 02:01:54;;;;;;;25.40;11.77;;;-0.30;99.90;;;;;;5081315;28;20032;-82
2022/03/04 02:04:21;;;;;;;26.77;12.60;;;-0.30;99.90;;;;;;5067695;28;20043;-82
2022/03/04 02:06:47;;;;;;;22.52;11.85;;;-0.30;99.90;;;;;;5064425;28;20040;-82
2022/03/04 02:09:12;;;;;;;24.13;12.55;;;-0.40;99.90;;;;;;5070790;28;20058;-82
2022/03/04 02:11:43;;;;;;;26.25;12.32;;;-0.10;99.90;;;;;;5065973;28;20032;-82
2022/03/04 02:14:09;;;;;;;26.17;12.30;;;-0.50;99.90;;;;;;5056532;28;20079;-82
2022/03/04 02:16:45;;;;;;;23.10;11.38;;;-0.50;99.90;;;;;;5088547;28;20538;-82
2022/03/04 02:19:11;;;;;;;22.80;11.93;;;-0.50;99.90;;;;;;5087774;28;20048;-82
2022/03/04 02:22:01;;;;;;;24.35;12.50;;;-0.50;99.90;;;;;;5087194;28;20050;-82
2022/03/04 02:24:30;;;;;;;25.83;12.23;;;-0.50;99.90;;;;;;5083471;28;20073;-82
2022/03/04 02:26:59;;;;;;;26.02;12.50;;;-0.50;99.90;;;;;;5089491;28;20036;-82
2022/03/04 02:29:25;;;;;;;24.13;13.07;;;-0.50;99.90;;;;;;5064858;28;20036;-82
2022/03/04 02:31:53;;;;;;;26.73;12.57;;;-0.50;99.90;;;;;;5069989;28;20032;-82
2022/03/04 02:34:19;;;;;;;24.13;12.55;;;-0.10;99.90;;;;;;5080769;28;20037;-82
2022/03/04 02:36:45;;;;;;;23.50;11.60;;;-0.50;99.90;;;;;;5069893;28;20043;-82
2022/03/04 02:39:11;;;;;;;25.17;12.68;;;-0.50;99.90;;;;;;5069262;28;20040;-82
2022/03/04 02:41:37;;;;;;;27.67;12.35;;;-0.10;99.90;;;;;;5066163;28;20032;-82
2022/03/04 02:44:05;;;;;;;22.98;12.00;;;-0.50;99.90;;;;;;5066435;28;20039;-82
2022/03/04 02:46:31;;;;;;;26.13;12.80;;;-0.60;99.90;;;;;;5086569;28;20032;-82
2022/03/04 02:48:57;;;;;;;24.15;12.18;;;-0.60;99.90;;;;;;5065940;28;20488;-82
2022/03/04 02:51:22;;;;;;;24.90;12.73;;;1.70;99.90;;;;;;5075714;28;20142;-82
2022/03/04 02:53:48;;;;;;;23.88;12.55;;;-0.60;99.90;;;;;;5056756;28;20547;-82
2022/03/04 02:56:14;;;;;;;26.65;12.65;;;-0.60;99.90;;;;;;5078283;28;20040;-82
2022/03/04 02:58:40;;;;;;;24.60;11.80;;;0.50;99.90;;;;;;5060741;28;20047;-82
2022/03/04 03:01:06;;;;;;;25.58;12.48;;;1.30;99.90;;;;;;5082438;28;20728;-81
2022/03/04 03:03:32;;;;;;;24.85;13.38;;;-0.20;99.90;;;;;;5074131;28;20036;-82
2022/03/04 03:05:57;;;;;;;26.50;13.02;;;-0.70;99.90;;;;;;5085653;28;20050;-82
2022/03/04 03:08:23;;;;;;;28.60;13.45;;;-0.60;99.90;;;;;;5083731;28;20040;-82
2022/03/04 03:10:49;;;;;;;25.30;12.48;;;0.70;99.90;;;;;;5067620;28;20089;-81
2022/03/04 03:13:15;;;;;;;23.80;12.07;;;-0.70;99.90;;;;;;5065117;28;20036;-82
2022/03/04 03:15:41;;;;;;;23.00;12.10;;;-0.70;99.90;;;;;;5065176;28;20036;-82
2022/03/04 03:18:06;;;;;;;25.70;12.77;;;-0.30;99.90;;;;;;5063283;28;20040;-81
2022/03/04 03:20:33;;;;;;;27.02;12.63;;;-0.70;99.90;;;;;;5069439;28;20040;-82
2022/03/04 03:22:59;;;;;;;27.02;12.52;;;-0.70;99.90;;;;;;5053096;28;20044;-82
2022/03/04 03:25:25;;;;;;;26.98;14.10;;;-0.70;99.90;;;;;;5082163;28;20440;-82
2022/03/04 03:27:51;;;;;;;25.80;13.05;;;-0.60;99.90;;;;;;5069709;28;20050;-82
2022/03/04 03:30:16;;;;;;;25.52;13.07;;;-1.90;99.90;;;;;;5084865;28;20050;-81
2022/03/04 03:32:42;;;;;;;25.40;12.82;;;-0.80;99.90;;;;;;5078232;28;20086;-82
2022/03/04 03:35:08;;;;;;;26.60;13.07;;;-0.50;99.90;;;;;;5084334;28;20516;-82
2022/03/04 03:37:38;;;;;;;27.15;13.00;;;-0.80;99.90;;;;;;5077441;28;20115;-83
2022/03/04 03:40:06;;;;;;;26.25;12.75;;;-0.80;99.90;;;;;;5063389;28;20040;-81
2022/03/04 03:42:32;;;;;;;26.95;13.40;;;-0.80;99.90;;;;;;5082215;28;20050;-82
2022/03/04 03:44:58;;;;;;;26.38;13.80;;;-0.50;99.90;;;;;;5065253;28;20118;-82
2022/03/04 03:47:24;;;;;;;26.73;12.88;;;;;;;;;;5068404;28;20044;-82
2022/03/04 03:49:49;;;;;;;24.23;12.32;;;-0.90;99.90;;;;;;5065895;28;20059;-82
2022/03/04 03:52:15;;;;;;;23.15;11.98;;;-0.30;99.90;;;;;;5069243;28;20036;-82
2022/03/04 03:54:41;;;;;;;23.17;12.10;;;;;;;;;;5085247;28;20493;-82
2022/03/04 03:57:07;;;;;;;24.83;12.85;;;-1.00;99.90;;;;;;5097110;28;20050;-82
2022/03/04 03:59:33;;;;;;;27.08;13.48;;;-1.00;99.90;;;;;;5069383;28;20452;-82
2022/03/04 04:01:59;;;;;;;25.75;13.50;;;-1.00;99.90;;;;;;5078326;28;20066;-82
2022/03/04 04:04:25;;;;;;;26.85;13.48;;;-1.10;99.90;;;;;;5068116;28;20194;-82
2022/03/04 04:06:50;;;;;;;27.08;13.95;;;-1.10;99.90;;;;;;5074172;28;20101;-82
2022/03/04 04:09:16;;;;;;;28.50;13.93;;;-1.10;99.90;;;;;;5073524;28;20579;-82
2022/03/04 04:11:43;;;;;;;30.05;13.65;;;-1.00;99.90;;;;;;5084943;28;20037;-82
2022/03/04 04:14:09;;;;;;;27.83;13.10;;;0.80;99.90;;;;;;5071046;28;20050;-82
2022/03/04 04:16:36;;;;;;;27.67;13.57;;;-0.90;99.90;;;;;;5084498;28;20067;-82
2022/03/04 04:19:03;;;;;;;26.27;13.25;;;0.10;99.90;;;;;;5085087;28;20037;-82
2022/03/04 04:21:29;;;;;;;25.55;13.15;;;-0.50;99.90;;;;;;5080539;28;20056;-82
2022/03/04 04:23:56;;;;;;;31.77;14.50;;;0.10;99.90;;;;;;5086578;28;20059;-82
2022/03/04 04:26:22;;;;;;;30.23;15.20;;;-0.80;99.90;;;;;;5065776;28;20043;-82
2022/03/04 04:28:50;;;;;;;27.92;15.10;;;-0.70;99.90;;;;;;5067361;28;20050;-82
2022/03/04 04:31:16;;;;;;;28.58;14.20;;;-0.60;99.90;;;;;;5061135;28;20051;-82
2022/03/04 04:33:42;;;;;;;27.02;14.13;;;-0.60;99.90;;;;;;5072326;28;20181;-82
2022/03/04 04:36:08;;;;;;;29.05;14.20;;;-0.40;99.90;;;;;;5072674;28;20134;-82
2022/03/04 04:38:34;;;;;;;30.00;14.85;;;-0.50;99.90;;;;;;5073101;28;20079;-83
2022/03/04 04:41:00;;;;;;;32.75;15.63;;;-0.50;99.90;;;;;;5043932;28;20032;-82
2022/03/04 04:43:25;;;;;;;30.92;14.52;;;-0.50;99.90;;;;;;5055099;28;20067;-82
2022/03/04 04:45:51;;;;;;;28.17;14.18;;;0.70;99.90;;;;;;5088414;28;20040;-82
2022/03/04 04:48:17;;;;;;;29.13;14.07;;;-0.50;99.90;;;;;;5051745;28;20119;-83
2022/03/04 04:50:43;;;;;;;31.00;15.45;;;-0.40;99.90;;;;;;5077720;28;20045;-83
2022/03/04 04:53:09;;;;;;;29.80;15.27;;;-1.80;99.90;;;;;;5062296;28;20037;-81
2022/03/04 04:55:34;;;;;;;28.55;14.35;;;-0.30;99.90;;;;;;5066846;28;20055;-82
2022/03/04 04:58:00;;;;;;;29.25;14.80;;;-0.40;99.90;;;;;;5083232;28;20045;-82
2022/03/04 05:00:26;;;;;;;33.72;16.15;;;-0.40;99.90;;;;;;5064996;28;20044;-82
2022/03/04 05:02:52;;;;;;;31.17;15.68;;;0.50;99.90;;;;;;5084293;28;20038;-82
2022/03/04 05:05:19;;;;;;;33.05;15.65;;;-0.30;99.90;;;;;;5072314;28;20116;-81
2022/03/04 05:07:46;;;;;;;27.90;14.63;;;-0.30;99.90;;;;;;5080187;28;20032;-82
2022/03/04 05:10:12;;;;;;;27.63;15.25;;;-0.20;99.90;;;;;;5075888;28;20561;-82
2022/03/04 05:12:39;;;;;;;30.10;15.82;;;-0.30;99.90;;;;;;5083454;28;20048;-82
2022/03/04 05:15:06;;;;;;;31.15;14.90;;;-0.30;99.90;;;;;;5088337;28;20055;-82
2022/03/04 05:17:32;;;;;;;25.85;13.77;;;-0.30;99.90;;;;;;5080574;28;20055;-82
2022/03/04 05:19:57;;;;;;;29.42;15.02;;;1.00;99.90;;;;;;5085136;28;20040;-82
2022/03/04 05:22:23;;;;;;;28.27;14.65;;;0.30;99.90;;;;;;5086333;28;20414;-82
2022/03/04 05:24:49;;;;;;;32.20;15.75;;;-0.30;99.90;;;;;;5059276;28;20500;-81
2022/03/04 05:27:14;;;;;;;27.50;14.75;;;-0.30;99.90;;;;;;5063913;28;20163;-82
2022/03/04 05:29:40;;;;;;;29.83;15.43;;;-0.30;99.90;;;;;;5068206;28;20119;-82
2022/03/04 05:32:06;;;;;;;28.45;14.80;;;0.10;99.90;;;;;;5070191;28;20051;-82
2022/03/04 05:34:32;;;;;;;28.80;14.77;;;-0.30;99.90;;;;;;5054341;28;20035;-82
2022/03/04 05:36:58;;;;;;;31.65;15.63;;;1.20;99.90;;;;;;5088525;28;20070;-81
2022/03/04 05:39:23;;;;;;;27.85;14.82;;;-0.30;99.90;;;;;;5069154;28;20166;-82
2022/03/04 05:41:49;;;;;;;27.30;14.63;;;-0.30;99.90;;;;;;5053304;28;20622;-82
2022/03/04 05:44:15;;;;;;;28.20;14.80;;;-0.30;99.90;;;;;;5072003;28;20656;-83
2022/03/04 05:46:41;;;;;;;32.45;16.27;;;-0.20;99.90;;;;;;5087781;28;20118;-82
2022/03/04 05:49:07;;;;;;;29.63;14.90;;;-0.30;99.90;;;;;;5064095;28;20032;-82
2022/03/04 05:51:34;;;;;;;30.15;15.05;;;-0.20;99.90;;;;;;5080061;28;20186;-82
2022/03/04 05:54:00;;;;;;;25.35;13.90;;;-0.20;99.90;;;;;;5087538;28;20042;-82
2022/03/04 05:56:26;;;;;;;28.02;14.48;;;-0.20;99.90;;;;;;5078953;28;20040;-82
2022/03/04 05:58:52;;;;;;;33.85;16.77;;;-0.20;99.90;;;;;;5085127;28;20036;-83
2022/03/04 06:01:18;;;;;;;29.98;15.35;;;-0.10;99.90;;;;;;5086586;28;20040;-82
2022/03/04 06:03:43;;;;;;;33.35;15.38;;;-0.20;99.90;;;;;;5086615;28;20024;-83
2022/03/04 06:06:13;;;;;;;28.25;14.95;;;-0.20;99.90;;;;;;5083555;28;20032;-82
2022/03/04 06:08:40;;;;;;;27.75;13.48;;;-0.20;99.90;;;;;;5085727;28;20051;-82
2022/03/04 06:11:10;;;;;;;28.67;14.70;;;-0.20;99.90;;;;;;5083346;28;20047;-82
2022/03/04 06:13:39;;;;;;;31.13;15.48;;;-0.10;99.90;;;;;;5077612;28;20067;-83
2022/03/04 06:16:05;;;;;;;27.00;14.40;;;-0.20;99.90;;;;;;5080740;28;20109;-82
2022/03/04 06:18:31;;;;;;;29.52;14.60;;;-0.20;99.90;;;;;;5065737;28;20159;-82
2022/03/04 06:20:57;;;;;;;31.75;15.95;;;-0.10;99.90;;;;;;5086960;28;20058;-82
2022/03/04 06:23:23;;;;;;;27.10;14.40;;;0.10;99.90;;;;;;5078922;28;20105;-82
2022/03/04 06:25:50;;;;;;;30.10;15.30;;;-0.10;99.90;;;;;;5070782;28;20044;-82
2022/03/04 06:28:16;;;;;;;29.42;15.15;;;-0.10;99.90;;;;;;5052183;28;20051;-82
2022/03/04 06:30:42;;;;;;;29.52;15.45;;;0.40;99.90;;;;;;5080340;28;20082;-85
2022/03/04 06:35:53;;;;;;;31.38;16.15;;;-0.10;99.90;;;;;;5102466;28;20075;-81
2022/03/04 06:38:20;;;;;;;29.98;15.13;;;0.00;99.90;;;;;;5084809;28;20114;-81
2022/03/04 06:40:47;;;;;;;27.83;15.52;;;0.00;99.90;;;;;;5086214;28;20471;-82
2022/03/04 06:43:14;;;;;;;30.63;16.55;;;0.00;99.90;;;;;;5068271;28;20512;-82
2022/03/04 06:45:44;;;;;;;29.30;15.20;;;0.10;99.90;;;;;;5087303;28;20385;-82
2022/03/04 06:48:11;;;;;;;27.48;15.38;;;0.10;99.90;;;;;;5060848;28;20028;-82
2022/03/04 06:50:37;;;;;;;28.23;15.07;;;0.00;99.90;;;;;;5060384;28;20068;-82
2022/03/04 06:53:03;;;;;;;28.45;15.32;;;0.00;99.90;;;;;;5085036;28;20473;-82
2022/03/04 06:55:30;;;;;;;30.58;15.95;;;-0.20;99.90;;;;;;5088463;28;20489;-82
2022/03/04 06:57:56;;;;;;;26.15;15.07;;;;;;;;;;5068591;28;20540;-83
2022/03/04 07:00:24;;;;;;;27.27;14.70;;;0.00;99.90;;;;;;5088357;28;20086;-83
2022/03/04 07:02:49;;;;;;;29.48;15.38;;;0.10;99.90;;;;;;5059327;28;20075;-83
2022/03/04 07:05:15;;;;;;;30.30;15.68;;;0.00;99.90;;;;;;5081457;28;20497;-83
2022/03/04 07:07:41;;;;;;;27.13;14.43;;;0.70;99.90;;;;;;5075137;28;20035;-83
2022/03/04 07:10:08;;;;;;;27.13;14.32;;;0.00;99.90;;;;;;5086044;28;20108;-91
2022/03/04 07:12:34;;;;;;;27.58;14.80;;;0.10;99.90;;;;;;5084540;28;20485;-93
2022/03/04 07:15:00;;;;;;;29.00;14.82;;;0.10;99.90;;;;;;5086610;28;20487;-92
2022/03/04 07:17:26;;;;;;;27.17;14.52;;;0.10;99.90;;;;;;5069852;28;20032;-91
2022/03/04 07:19:51;;;;;;;28.00;14.80;;;0.10;99.90;;;;;;5081306;28;20485;-91
2022/03/04 07:22:17;;;;;;;29.23;14.85;;;0.10;99.90;;;;;;5082175;28;20058;-87
2022/03/04 07:24:43;;;;;;;30.45;14.57;;;0.10;99.90;;;;;;5074378;28;20036;-87
2022/03/04 07:27:09;;;;;;;29.38;15.75;;;0.20;99.90;;;;;;5044583;28;20043;-91
2022/03/04 07:29:34;;;;;;;27.00;14.57;;;0.20;99.90;;;;;;5089781;28;20093;-94
2022/03/04 07:32:00;;;;;;;29.05;15.48;;;0.30;99.90;;;;;;5087092;28;20032;-95
2022/03/04 07:34:26;;;;;;;27.77;14.25;;;0.30;99.90;;;;;;5063895;28;20043;-96
2022/03/04 07:36:52;;;;;;;25.98;14.15;;;2.40;99.90;;;;;;5091557;28;20043;-94
2022/03/04 07:39:18;;;;;;;27.25;15.05;;;0.70;99.90;;;;;;5057195;28;20510;-96
2022/03/04 07:41:47;;;;;;;26.25;15.05;;;0.40;99.90;;;;;;5086267;28;20229;-95
2022/03/04 07:44:14;;;;;;;27.50;14.45;;;0.40;99.90;;;;;;5093136;28;20039;-96
2022/03/04 07:46:40;;;;;;;28.55;14.20;;;0.20;99.90;;;;;;5095938;28;20043;-95
2022/03/04 07:49:06;;;;;;;28.50;14.05;;;0.40;99.90;;;;;;5075093;28;20044;-91
2022/03/04 07:51:33;;;;;;;27.23;15.48;;;;;;;;;;5072220;28;20036;-90
2022/03/04 07:53:59;;;;;;;26.70;14.25;;;0.50;99.90;;;;;;5058483;28;20113;-94
2022/03/04 07:56:25;;;;;;;25.00;13.77;;;0.50;99.90;;;;;;5076006;28;20040;-92
2022/03/04 07:58:51;;;;;;;26.20;14.07;;;0.60;99.90;;;;;;5072042;28;20508;-93
2022/03/04 08:01:16;;;;;;;26.10;14.20;;;0.60;99.90;;;;;;5088340;28;20093;-96
2022/03/04 08:03:45;;;;;;;26.27;13.80;;;1.10;99.90;;;;;;5060220;28;20063;-89
2022/03/04 08:06:12;;;;;;;25.73;14.38;;;1.10;99.90;;;;;;5063805;28;20044;-90
2022/03/04 08:08:38;;;;;;;24.02;12.57;;;0.80;99.90;;;;;;5093674;28;20072;-92
2022/03/04 08:11:04;;;;;;;24.63;13.90;;;0.80;99.90;;;;;;5071933;28;20036;-92
2022/03/04 08:13:30;;;;;;;26.27;13.48;;;0.80;99.90;;;;;;5079844;28;20060;-89
2022/03/04 08:15:56;;;;;;;26.65;13.73;;;0.80;99.90;;;;;;5078044;28;20047;-88
2022/03/04 08:18:21;;;;;;;22.63;12.52;;;0.90;99.90;;;;;;5081150;28;20128;-91
2022/03/04 08:20:47;;;;;;;23.55;12.95;;;1.00;99.90;;;;;;5050292;28;20054;-92
2022/03/04 08:23:13;;;;;;;28.55;14.93;;;1.00;99.90;;;;;;5081661;28;20067;-90
2022/03/04 08:25:39;;;;;;;23.73;13.10;;;1.00;99.90;;;;;;5071025;28;20055;-89
2022/03/04 08:28:06;;;;;;;24.85;12.95;;;1.10;99.90;;;;;;5061445;28;20512;-89
2022/03/04 08:30:32;;;;;;;23.20;13.60;;;1.10;99.90;;;;;;5091378;28;20044;-92
2022/03/04 08:32:58;;;;;;;24.58;13.52;;;1.20;99.90;;;;;;5080499;28;20044;-94
2022/03/04 08:35:25;;;;;;;26.55;14.57;;;1.30;99.90;;;;;;5081163;28;20047;-89
2022/03/04 08:37:52;;;;;;;24.88;13.57;;;1.30;99.90;;;;;;5095797;28;20040;-92
2022/03/04 08:40:18;;;;;;;24.85;13.60;;;1.40;99.90;;;;;;5091739;28;20032;-92
2022/03/04 08:42:45;;;;;;;23.70;14.02;;;1.40;99.90;;;;;;5071693;28;20043;-90
2022/03/04 08:45:13;;;;;;;26.15;13.60;;;3.30;99.90;;;;;;5075678;28;20123;-91
2022/03/04 08:47:41;;;;;;;21.80;12.32;;;1.50;99.90;;;;;;5091463;28;20036;-88
2022/03/04 08:50:08;;;;;;;22.63;13.15;;;3.50;99.90;;;;;;5084896;28;20493;-89
2022/03/04 08:52:34;;;;;;;25.38;13.27;;;1.60;99.90;;;;;;5070087;28;20408;-92
2022/03/04 08:55:00;;;;;;;22.60;13.05;;;1.70;99.90;;;;;;5071860;28;20040;-94
2022/03/04 08:57:26;;;;;;;25.10;14.07;;;1.80;99.90;;;;;;5085624;28;20467;-90
2022/03/04 08:59:52;;;;;;;24.48;13.73;;;1.80;99.90;;;;;;5069544;28;20115;-90
2022/03/04 09:02:18;;;;;;;22.42;13.02;;;1.90;99.90;;;;;;5070764;28;20032;-92
2022/03/04 09:04:44;;;;;;;22.92;12.88;;;1.80;99.90;;;;;;5067168;28;20492;-89
2022/03/04 09:07:09;;;;;;;22.30;12.40;;;2.00;99.90;;;;;;5072912;28;20111;-91
2022/03/04 09:09:35;;;;;;;22.85;13.38;;;2.10;99.90;;;;;;5087596;28;20028;-90
2022/03/04 09:12:01;;;;;;;23.63;12.93;;;2.30;99.90;;;;;;5062131;28;20046;-90
2022/03/04 09:14:27;;;;;;;21.77;12.55;;;2.40;99.90;;;;;;5089531;28;20381;-90
2022/03/04 09:16:53;;;;;;;21.48;12.75;;;2.50;99.90;;;;;;5074070;28;20062;-92
2022/03/04 09:19:19;;;;;;;24.05;13.20;;;2.80;99.90;;;;;;5071780;28;20028;-91
2022/03/04 09:21:47;;;;;;;22.40;12.48;;;2.40;99.90;;;;;;5069061;28;20063;-90
2022/03/04 09:24:14;;;;;;;21.15;11.88;;;4.10;99.90;;;;;;5067038;28;20111;-87
2022/03/04 09:26:40;;;;;;;23.35;13.18;;;2.30;99.90;;;;;;5073549;28;20044;-91
2022/03/04 09:29:06;;;;;;;20.35;12.02;;;2.30;99.90;;;;;;5073874;28;20044;-92
2022/03/04 09:31:32;;;;;;;20.63;12.48;;;2.40;99.90;;;;;;5067543;28;20040;-93
2022/03/04 09:33:58;;;;;;;22.65;12.98;;;;;;;;;;5096444;28;20035;-89
2022/03/04 09:36:24;;;;;;;21.40;12.15;;;2.60;99.90;;;;;;5074935;28;20058;-89
2022/03/04 09:38:50;;;;;;;21.70;13.07;;;2.70;99.90;;;;;;5075640;28;20039;-94
2022/03/04 09:41:16;;;;;;;23.02;13.35;;;2.70;99.90;;;;;;5052685;28;20051;-89
2022/03/04 09:43:42;;;;;;;22.27;12.93;;;2.80;99.90;;;;;;5071634;28;20111;-91
2022/03/04 09:46:08;;;;;;;23.20;12.80;;;2.80;99.90;;;;;;5089022;28;20405;-87
2022/03/04 09:48:39;;;;;;;19.55;11.93;;;2.90;99.90;;;;;;5056751;28;20044;-93
2022/03/04 09:51:07;;;;;;;21.02;11.80;;;3.00;99.90;;;;;;5067849;28;20101;-90
2022/03/04 09:53:33;;;;;;;19.88;11.52;;;3.00;99.90;;;;;;5080774;28;20081;-89
2022/03/04 09:55:58;;;;;;;19.77;11.48;;;4.50;99.90;;;;;;5056562;28;20115;-91
2022/03/04 09:58:24;;;;;;;19.65;11.90;;;3.20;99.90;;;;;;5067725;28;20059;-94
2022/03/04 10:00:50;;;;;;;20.02;11.50;;;3.30;99.90;;;;;;5065966;28;20431;-92
2022/03/04 10:03:43;;;;;;;20.00;10.65;;;4.50;99.90;;;;;;5079223;28;20500;-88
2022/03/04 10:06:09;;;;;;;19.95;10.93;;;3.50;99.90;;;;;;5070620;28;20044;-95
2022/03/04 10:08:41;;;;;;;20.20;11.57;;;3.50;99.90;;;;;;5084672;28;20036;-90
2022/03/04 10:11:08;;;;;;;19.23;11.40;;;3.60;99.90;;;;;;5053534;28;20105;-94
2022/03/04 10:13:47;;;;;;;19.92;11.30;;;3.70;99.90;;;;;;5060558;28;20496;-89
2022/03/04 10:16:24;;;;;;;18.85;11.48;;;3.70;99.90;;;;;;5089253;28;20060;-88
2022/03/04 10:19:16;;;;;;;19.52;11.93;;;3.80;99.90;;;;;;5089646;28;20044;-88
2022/03/04 10:22:03;;;;;;;19.77;12.18;;;3.80;99.90;;;;;;5089965;28;20048;-93
2022/03/04 10:24:33;;;;;;;18.73;11.13;;;3.90;99.90;;;;;;5074865;28;20048;-93
2022/03/04 10:27:07;;;;;;;19.48;11.13;;;4.00;99.90;;;;;;5090084;28;20439;-91
2022/03/04 10:29:38;;;;;;;20.65;11.43;;;4.10;99.90;;;;;;5070381;28;20395;-90
2022/03/04 10:32:32;;;;;;;19.05;11.13;;;4.10;99.90;;;;;;5087986;28;20181;-94
2022/03/04 10:35:10;;;;;;;;;;;4.30;99.90;;;;;;5067499;28;20396;-88
2022/03/04 10:37:56;;;;;;;18.25;10.93;;;4.40;99.90;;;;;;5079163;28;19935;-88
2022/03/04 10:40:26;;;;;;;18.02;10.15;;;5.30;99.90;;;;;;5083951;28;20098;-87
2022/03/04 10:43:01;;;;;;;17.73;10.15;;;4.60;99.90;;;;;;5051115;28;20401;-89
2022/03/04 10:45:28;;;;;;;17.50;9.80;;;4.70;99.90;;;;;;5092125;28;20036;-87
2022/03/04 10:47:57;;;;;;;18.30;10.40;;;5.00;99.90;;;;;;5074415;28;20032;-88
2022/03/04 10:51:05;;;;;;;18.38;10.43;;;6.00;99.90;;;;;;5054279;28;20028;-90
2022/03/04 10:53:32;;;;;;;17.05;9.73;;;4.90;99.90;;;;;;5066535;28;20048;-88
2022/03/04 10:56:04;;;;;;;18.95;11.05;;;6.30;99.90;;;;;;5085356;28;20051;-90
2022/03/04 10:58:35;;;;;;;18.15;10.18;;;5.20;99.90;;;;;;5074635;28;20051;-91
2022/03/04 11:01:08;;;;;;;18.95;10.40;;;5.80;99.90;;;;;;5081719;28;20035;-95
2022/03/04 11:03:34;;;;;;;18.05;10.52;;;6.50;99.90;;;;;;5087968;28;20092;-87
2022/03/04 11:06:08;;;;;;;17.48;9.63;;;5.40;99.90;;;;;;5087106;28;20036;-91
2022/03/04 11:08:35;;;;;;;17.05;10.05;;;5.40;99.90;;;;;;5088667;28;20046;-91
2022/03/04 11:11:02;;;;;;;21.23;10.40;;;7.50;99.90;;;;;;5072696;28;20634;-87
2022/03/04 11:13:34;;;;;;;18.00;9.90;;;7.10;99.90;;;;;;5072861;28;20044;-89
2022/03/04 11:16:01;;;;;;;18.70;10.00;;;5.60;99.90;;;;;;5073072;28;20706;-91
2022/03/04 11:18:27;;;;;;;19.80;10.70;;;6.80;99.90;;;;;;5090181;28;20072;-89
2022/03/04 11:20:55;;;;;;;18.25;10.32;;;5.70;99.90;;;;;;5079348;28;20068;-89
2022/03/04 11:23:30;;;;;;;19.25;10.95;;;7.00;99.90;;;;;;5080945;28;20056;-95
2022/03/04 11:26:01;;;;;;;17.98;10.13;;;5.90;99.90;;;;;;5088797;28;20152;-89
2022/03/04 11:28:36;;;;;;;17.88;10.32;;;6.80;99.90;;;;;;5084035;28;20047;-92
2022/03/04 11:31:06;;;;;;;17.42;9.88;;;5.90;99.90;;;;;;5090318;28;20040;-91
2022/03/04 11:33:35;;;;;;;16.17;9.77;;;6.10;99.90;;;;;;5073920;28;20040;-89
2022/03/04 11:36:15;;;;;;;17.63;9.60;;;6.10;99.90;;;;;;5089787;28;20047;-91
2022/03/04 11:38:44;;;;;;;16.70;9.77;;;6.10;99.90;;;;;;5089676;28;20098;-91
2022/03/04 11:41:11;;;;;;;17.60;10.20;;;7.20;99.90;;;;;;5074099;28;20036;-91
2022/03/04 11:43:50;;;;;;;18.10;10.25;;;6.30;99.90;;;;;;5075128;28;20136;-91
2022/03/04 11:46:24;;;;;;;18.52;10.40;;;6.40;99.90;;;;;;5084756;28;20047;-90
2022/03/04 11:49:21;;;;;;;19.88;10.88;;;7.30;99.90;;;;;;5073217;28;20040;-90
2022/03/04 11:52:09;;;;;;;18.80;11.02;;;6.60;99.90;;;;;;5076705;28;20036;-90
2022/03/04 11:54:44;;;;;;;19.00;10.75;;;6.60;99.90;;;;;;5069584;28;20079;-90
2022/03/04 11:57:23;;;;;;;16.70;9.85;;;6.50;99.90;;;;;;5084420;28;20037;-90
2022/03/04 12:00:19;;;;;;;18.90;10.30;;;6.60;99.90;;;;;;5076757;28;20046;-91
2022/03/04 12:02:57;;;;;;;19.23;9.88;;;6.70;99.90;;;;;;5042678;28;20074;-91
2022/03/04 12:05:28;;;;;;;18.52;10.75;;;6.70;99.90;;;;;;5082888;28;20033;-91
2022/03/04 12:07:54;;;;;;;18.80;10.50;;;6.70;99.90;;;;;;5086077;28;20048;-91
2022/03/04 12:10:39;;;;;;;17.17;9.85;;;6.70;99.90;;;;;;5055831;28;20028;-90
2022/03/04 12:13:07;;;;;;;17.45;10.25;;;6.80;99.90;;;;;;5081419;28;20044;-89
2022/03/04 12:15:38;;;;;;;20.45;11.52;;;7.50;99.90;;;;;;5071423;28;20040;-90
2022/03/04 12:18:29;;;;;;;20.02;11.57;;;6.90;99.90;;;;;;5087635;28;20130;-91
2022/03/04 12:20:59;;;;;;;19.20;11.13;;;7.00;99.90;;;;;;5083737;28;20036;-90
2022/03/04 12:23:29;;;;;;;19.63;11.13;;;7.00;99.90;;;;;;5084029;28;20590;-91
2022/03/04 12:25:55;;;;;;;21.05;12.15;;;8.40;99.90;;;;;;5077379;28;20044;-91
2022/03/04 12:28:21;;;;;;;20.45;12.25;;;7.60;99.90;;;;;;5068900;28;20634;-90
2022/03/04 12:31:07;;;;;;;23.40;13.25;;;7.20;99.90;;;;;;5070877;28;20044;-89
2022/03/04 12:33:44;;;;;;;22.65;12.50;;;7.30;99.90;;;;;;5078952;28;20483;-89
2022/03/04 12:36:12;;;;;;;19.52;11.93;;;7.30;99.90;;;;;;5078916;28;20119;-88
2022/03/04 12:38:44;;;;;;;20.58;12.05;;;7.40;99.90;;;;;;5083886;28;20075;-89
2022/03/04 12:41:17;;;;;;;19.83;11.38;;;8.00;99.90;;;;;;5084186;28;20040;-90
2022/03/04 12:43:48;;;;;;;20.20;12.18;;;7.70;99.90;;;;;;5085725;28;20040;-87
2022/03/04 12:46:20;;;;;;;20.05;11.68;;;7.40;99.90;;;;;;5086130;28;20040;-92
2022/03/04 12:48:47;;;;;;;19.35;11.32;;;8.80;99.90;;;;;;5085878;28;20044;-90
2022/03/04 12:51:37;;;;;;;19.92;11.38;;;7.30;99.90;;;;;;5083768;28;20111;-89
2022/03/04 12:54:06;;;;;;;18.63;11.00;;;8.50;99.90;;;;;;5075359;28;20048;-93
2022/03/04 12:56:32;;;;;;;20.42;11.15;;;7.40;99.90;;;;;;5083299;28;20044;-93
2022/03/04 12:59:00;;;;;;;20.42;10.35;;;7.40;99.90;;;;;;5069716;28;20039;-91